Архив погоды в Елань

Метеограмма Елань
Среда, 19 Июня
Время местн. Темп Ветер Видим Явления Облачность нижн/средн/верх Атм. давл. Влжн Точка росы ВНГО R Сост. почвы Tg s
Напр Скр Прв ур.ст ур.м изм
15:00 +29.4° С 3 - 20 км - переменная облачность 748 759 -0.5 28% +9.1° 1 км - - - -
12:00 +27° С,С-З 3 - 20 км - облачно с прояснениями 748 760 +0.1 43% +13.2° 1 км - - - -
09:00 +23.8° З,С-З 1 - 20 км небо без изменений {гроза, ливневые осадки} облачно с прояснениями 749 760 +0.3 60% +15.6° 1 км - - - -
06:00 +17.9° В,С-В 1 - 20 км гроза {ливневые осадки} преимущественно облачно 748 760 +0.1 93% +16.7° 1 км - Влажная (без луж) - -
03:00 +17.9° С,С-З 2 - 20 км - облачно с прояснениями 748 760 +0.2 64% +11.1° - - - - -
00:00 +16.7° штиль 0 - 20 км - ясно 748 760 0 65% +10.1° более 2.5 км - - - -
Вторник, 18 Июня
Время местн. Темп Ветер Видим Явления Облачность нижн/средн/верх Атм. давл. Влжн Точка росы ВНГО R Сост. почвы Tg s
Напр Скр Прв ур.ст ур.м изм
21:00 +21° З 1 - 20 км - переменная облачность 748 760 +0.2 48% +9.6° - - - - -
18:00 +28.1° С-З 1 - 20 км - переменная облачность 748 759 -0.5 28% +7.9° более 2.5 км - - - -
15:00 +28.1° С 3 - 20 км - переменная облачность 748 760 -0.8 27% +7.6° 1 км - - - -
12:00 +27° С 3 - 20 км - облачно с прояснениями 749 760 -0.3 29% +7.7° 1 км - - - -
09:00 +24.8° С 3 - 20 км - переменная облачность 749 761 +0.1 37% +9.1° более 2.5 км - - - -
06:00 +18° С 2 - 20 км - переменная облачность 749 761 +0.5 59% +9.9° - - Сухая (без трещин) - -
03:00 +13.7° З 1 - 20 км - переменная облачность 749 761 -0.2 75% +9.3° - - - - -
00:00 - +15.9° З,С-З 1 - - - - 749 761 +0.2 57% +7.4° - - - - -
Понедельник, 17 Июня
Время местн. Темп Ветер Видим Явления Облачность нижн/средн/верх Атм. давл. Влжн Точка росы ВНГО R Сост. почвы Tg s
Напр Скр Прв ур.ст ур.м изм
21:00 +21.2° С,С-З 2 - 20 км - переменная облачность 749 761 -0.5 43% +8.3° более 2.5 км - - - -
18:00 +25.9° С 2 - 20 км - незначительная облачность 749 760 -0.5 29% +6.7° более 2.5 км 0 - - -
15:00 +26.3° С 3 - 20 км - ясно 749 761 -0.5 30% +7.3° более 2.5 км - - - -
12:00 +24.6° С,С-З 2 - 20 км - незначительная облачность 750 761 0 35% +8.1° более 2.5 км - - - -
09:00 +22.3° С,С-В 3 - 20 км - переменная облачность 750 761 +0.5 41% +8.5° более 2.5 км - - - -
06:00 +15.3° С 2 - 20 км - переменная облачность 749 761 +0.6 63% +8.3° - - Сухая (без трещин) - -
03:00 +12.5° С 3 - 20 км - переменная облачность 749 761 +0.5 70% +7.2° - - - - -
00:00 +14.1° С 3 - 20 км - переменная облачность 748 760 +0.7 64% +7.5° - - - - -
Воскресенье, 16 Июня
Время местн. Темп Ветер Видим Явления Облачность нижн/средн/верх Атм. давл. Влжн Точка росы ВНГО R Сост. почвы Tg s
Напр Скр Прв ур.ст ур.м изм
21:00 +18.6° С 1 - 20 км - переменная облачность 747 759 +0.3 51% +8.2° - - - - -
18:00 +22.8° С,С-З 5 - 20 км - преимущественно облачно 747 759 +0.6 42% +9.1° - - - - -
15:00 +26.1° С 4 - 20 км - облачно 747 758 -0.6 37% +10.1° 1.5 км - - - -
12:00 +25° З,С-З 3 - 20 км - облачно 747 759 -0.7 45% +12.2° 1 км - - - -